createdAt,value
2023-03-30T00:01:20.024Z,2.45
2023-03-30T00:03:48.169Z,2.10
2023-03-30T00:06:23.473Z,2.45
2023-03-30T00:08:57.434Z,2.15
2023-03-30T00:11:25.335Z,2.08
2023-03-30T00:13:52.433Z,2.30
2023-03-30T00:16:20.660Z,2.33
2023-03-30T00:18:47.653Z,1.73
2023-03-30T00:21:21.232Z,1.95
2023-03-30T00:23:48.277Z,1.90
2023-03-30T00:26:16.261Z,2.17
2023-03-30T00:28:43.105Z,1.90
2023-03-30T00:31:11.386Z,2.15
2023-03-30T00:33:46.485Z,2.10
2023-03-30T00:36:14.722Z,2.22
2023-03-30T00:38:41.893Z,2.05
2023-03-30T00:41:09.518Z,2.08
2023-03-30T00:43:55.754Z,1.98
2023-03-30T00:46:24.154Z,2.25
2023-03-30T00:48:51.463Z,2.10
2023-03-30T00:51:19.480Z,1.55
2023-03-30T00:53:49.685Z,1.75
2023-03-30T00:56:19.742Z,1.88
2023-03-30T00:58:48.069Z,2.00
2023-03-30T01:01:25.835Z,2.00
2023-03-30T01:03:53.990Z,2.35
2023-03-30T01:06:24.552Z,2.20
2023-03-30T01:08:54.214Z,2.33
2023-03-30T01:11:21.691Z,1.77
2023-03-30T01:13:52.179Z,2.25
2023-03-30T01:16:33.762Z,2.85
2023-03-30T01:19:38.209Z,2.10
2023-03-30T01:22:43.553Z,2.00
2023-03-30T01:25:48.677Z,2.45
2023-03-30T01:28:41.926Z,3.20
2023-03-30T01:31:40.224Z,2.35
2023-03-30T01:34:31.107Z,2.92
2023-03-30T01:37:31.945Z,2.47
2023-03-30T01:40:15.515Z,2.35
2023-03-30T01:43:02.949Z,2.70
2023-03-30T01:45:32.930Z,2.20
2023-03-30T01:48:11.533Z,2.45
2023-03-30T01:50:47.280Z,2.35
2023-03-30T01:55:57.886Z,2.17
2023-03-30T01:58:49.873Z,2.00
2023-03-30T02:01:20.874Z,2.40
2023-03-30T02:03:53.592Z,2.10
2023-03-30T02:06:38.998Z,1.92
2023-03-30T02:09:10.569Z,2.25
2023-03-30T02:11:42.075Z,1.70
2023-03-30T02:14:11.234Z,1.92
2023-03-30T02:16:44.984Z,2.30
2023-03-30T02:19:12.085Z,2.30
2023-03-30T02:21:39.180Z,2.30
2023-03-30T02:24:10.063Z,2.22
2023-03-30T02:26:37.231Z,2.35
2023-03-30T02:29:06.327Z,2.25
2023-03-30T02:31:34.288Z,2.50
2023-03-30T02:34:23.756Z,2.65
2023-03-30T02:37:14.694Z,2.47
2023-03-30T02:39:47.836Z,2.70
2023-03-30T02:42:21.545Z,2.53
2023-03-30T02:45:09.707Z,2.80
2023-03-30T02:47:41.376Z,2.65
2023-03-30T02:50:37.516Z,3.25
2023-03-30T02:53:39.567Z,2.80
2023-03-30T02:56:11.538Z,3.33
2023-03-30T02:58:55.688Z,3.00
2023-03-30T03:01:34.995Z,2.72
2023-03-30T03:04:11.355Z,2.20
2023-03-30T03:07:20.472Z,2.35
2023-03-30T03:09:48.187Z,2.20
2023-03-30T03:12:15.554Z,2.63
2023-03-30T03:14:43.223Z,2.38
2023-03-30T03:17:13.747Z,2.50
2023-03-30T03:19:44.882Z,2.00
2023-03-30T03:22:12.696Z,2.45
2023-03-30T03:24:41.176Z,2.50
2023-03-30T03:27:37.191Z,2.30
2023-03-30T03:30:18.484Z,2.45
2023-03-30T03:32:53.854Z,2.75
2023-03-30T03:35:21.842Z,2.83
2023-03-30T03:37:49.006Z,2.63
2023-03-30T03:40:16.880Z,2.90
2023-03-30T03:42:44.648Z,2.40
2023-03-30T03:45:13.528Z,2.38
2023-03-30T03:47:59.025Z,2.65
2023-03-30T03:50:54.264Z,2.67
2023-03-30T03:53:22.163Z,2.63
2023-03-30T03:55:53.690Z,2.50
2023-03-30T03:58:21.994Z,2.50
2023-03-30T04:01:01.095Z,3.20
2023-03-30T04:03:28.610Z,3.33
2023-03-30T04:05:59.053Z,3.30
2023-03-30T04:08:26.642Z,3.25
2023-03-30T04:10:54.344Z,2.38
2023-03-30T04:13:48.375Z,2.95
2023-03-30T04:16:36.795Z,2.80
2023-03-30T04:19:18.110Z,5.03
2023-03-30T04:21:53.130Z,2.50
2023-03-30T04:24:38.243Z,3.03
2023-03-30T04:27:25.864Z,2.80
2023-03-30T04:29:58.663Z,3.08
2023-03-30T04:33:03.915Z,3.10
2023-03-30T04:35:54.176Z,3.05
2023-03-30T04:39:07.386Z,3.80
2023-03-30T04:41:54.407Z,2.40
2023-03-30T04:44:38.827Z,2.95
2023-03-30T04:47:29.116Z,3.47
2023-03-30T04:50:16.656Z,3.03
2023-03-30T04:53:01.993Z,3.08
2023-03-30T04:56:01.324Z,3.35
2023-03-30T04:58:41.046Z,3.47
2023-03-30T05:01:30.408Z,3.10
2023-03-30T05:04:17.125Z,3.28
2023-03-30T05:07:02.662Z,3.78
2023-03-30T05:09:52.623Z,3.22
2023-03-30T05:12:25.273Z,3.67
2023-03-30T05:15:12.386Z,2.90
2023-03-30T05:18:05.860Z,2.97
2023-03-30T05:20:59.461Z,4.78
2023-03-30T05:23:51.478Z,3.00
2023-03-30T05:26:40.018Z,3.10
2023-03-30T05:29:10.136Z,3.97
2023-03-30T05:32:03.332Z,2.85
2023-03-30T05:35:02.943Z,2.95
2023-03-30T05:37:42.277Z,2.70
2023-03-30T05:40:27.924Z,3.30
2023-03-30T05:43:21.732Z,3.15
2023-03-30T05:46:21.568Z,5.07
2023-03-30T05:49:08.993Z,3.25
2023-03-30T05:51:50.214Z,3.88
2023-03-30T05:54:36.389Z,3.30
2023-03-30T05:57:22.175Z,5.65
2023-03-30T06:00:12.642Z,3.38
2023-03-30T06:02:46.218Z,3.28
2023-03-30T06:05:20.521Z,3.33
2023-03-30T06:07:47.584Z,2.85
2023-03-30T06:10:16.504Z,3.08
2023-03-30T06:12:54.917Z,3.10
2023-03-30T06:15:40.060Z,2.38
2023-03-30T06:18:10.284Z,3.10
2023-03-30T06:20:42.823Z,3.08
2023-03-30T06:23:10.258Z,2.83
2023-03-30T06:25:39.977Z,2.75
2023-03-30T06:28:08.006Z,3.28
2023-03-30T06:30:35.683Z,2.55
2023-03-30T06:33:08.131Z,4.10
2023-03-30T06:35:50.181Z,3.05
2023-03-30T06:38:21.775Z,2.45
2023-03-30T06:40:51.386Z,2.50
2023-03-30T06:43:23.877Z,2.45
2023-03-30T06:46:15.855Z,2.40
2023-03-30T06:48:47.839Z,2.58
2023-03-30T06:51:37.947Z,2.75
2023-03-30T06:54:07.141Z,2.17
2023-03-30T06:56:34.575Z,2.42
2023-03-30T06:59:15.589Z,2.55
2023-03-30T07:02:18.141Z,1.90
2023-03-30T07:05:15.898Z,2.17
2023-03-30T07:08:21.410Z,2.88
2023-03-30T07:10:53.091Z,2.40
2023-03-30T07:13:22.399Z,2.25
2023-03-30T07:15:52.531Z,2.33
2023-03-30T07:18:20.134Z,2.13
2023-03-30T07:20:51.076Z,3.15
2023-03-30T07:23:26.258Z,2.63
2023-03-30T07:25:56.571Z,3.40
2023-03-30T07:28:42.105Z,1.90
2023-03-30T07:31:13.906Z,1.40
2023-03-30T07:33:42.827Z,1.50
2023-03-30T07:36:13.732Z,1.42
2023-03-30T07:38:41.080Z,1.90
2023-03-30T07:41:11.607Z,2.72
2023-03-30T07:43:40.833Z,2.20
2023-03-30T07:46:10.124Z,1.80
2023-03-30T07:48:40.849Z,1.42
2023-03-30T07:51:11.631Z,1.60
2023-03-30T07:53:48.862Z,1.35
2023-03-30T07:56:31.875Z,1.60
2023-03-30T07:59:01.723Z,1.73
2023-03-30T08:01:36.417Z,2.50
2023-03-30T08:04:31.806Z,1.85
2023-03-30T08:07:01.421Z,2.00
2023-03-30T08:09:34.362Z,1.52
2023-03-30T08:12:12.879Z,1.83
2023-03-30T08:14:40.377Z,2.08
2023-03-30T08:17:07.817Z,2.40
2023-03-30T08:19:35.044Z,2.17
2023-03-30T08:22:02.251Z,2.58
2023-03-30T08:24:29.547Z,2.17
2023-03-30T08:27:00.700Z,1.35
2023-03-30T08:29:33.978Z,1.52
2023-03-30T08:34:36.158Z,1.50
2023-03-30T08:37:05.714Z,1.58
2023-03-30T08:39:33.341Z,1.50
2023-03-30T08:42:37.219Z,1.42
2023-03-30T08:45:05.645Z,1.00
2023-03-30T08:47:44.470Z,1.75
2023-03-30T08:50:32.053Z,2.20
2023-03-30T08:53:03.199Z,1.77
2023-03-30T08:55:32.910Z,1.50
2023-03-30T08:58:06.724Z,2.05
2023-03-30T09:01:08.210Z,2.00
2023-03-30T09:03:45.234Z,1.73
2023-03-30T09:06:26.498Z,1.40
2023-03-30T09:08:53.979Z,1.92
2023-03-30T09:12:07.224Z,1.17
2023-03-30T09:14:45.323Z,1.52
2023-03-30T09:17:18.629Z,1.77
2023-03-30T09:22:24.454Z,2.03
2023-03-30T09:24:53.804Z,2.00
2023-03-30T09:27:28.359Z,1.85
2023-03-30T09:29:58.474Z,2.28
2023-03-30T09:32:44.834Z,2.13
2023-03-30T09:35:21.974Z,1.85
2023-03-30T09:37:49.206Z,1.95
2023-03-30T09:40:48.458Z,2.20
2023-03-30T09:43:25.386Z,1.92
2023-03-30T09:45:52.751Z,1.55
2023-03-30T09:48:21.887Z,1.83
2023-03-30T09:50:48.824Z,2.58
2023-03-30T09:53:27.642Z,2.00
2023-03-30T09:56:07.522Z,2.70
2023-03-30T09:58:36.157Z,2.10
2023-03-30T10:01:06.110Z,1.60
2023-03-30T10:03:44.833Z,1.65
2023-03-30T10:06:18.680Z,1.80
2023-03-30T10:09:00.942Z,1.70
2023-03-30T10:11:44.084Z,1.80
2023-03-30T10:14:38.608Z,1.50
2023-03-30T10:17:10.221Z,1.77
2023-03-30T10:19:45.954Z,1.42
2023-03-30T10:22:26.900Z,1.73
2023-03-30T10:25:00.174Z,1.30
2023-03-30T10:27:39.789Z,1.33
2023-03-30T10:30:12.901Z,1.75
2023-03-30T10:32:51.978Z,1.40
2023-03-30T10:35:28.613Z,1.90
2023-03-30T10:37:58.839Z,1.60
2023-03-30T10:40:38.492Z,1.80
2023-03-30T10:43:30.565Z,1.30
2023-03-30T10:46:19.295Z,1.00
2023-03-30T10:48:57.045Z,1.30
2023-03-30T10:51:52.223Z,1.00
2023-03-30T10:54:27.897Z,1.30
2023-03-30T10:57:46.103Z,1.55
2023-03-30T11:00:36.032Z,1.23
2023-03-30T11:03:33.363Z,1.23
2023-03-30T11:06:18.222Z,1.48
2023-03-30T11:08:51.036Z,1.25
2023-03-30T11:12:03.242Z,1.30
2023-03-30T11:14:57.176Z,1.55
2023-03-30T11:17:54.910Z,1.23
2023-03-30T11:20:34.806Z,1.63
2023-03-30T11:23:30.907Z,0.95
2023-03-30T11:26:09.272Z,0.93
2023-03-30T11:28:56.957Z,1.20
2023-03-30T11:31:48.776Z,1.90
2023-03-30T11:34:30.352Z,1.92
2023-03-30T11:37:23.942Z,0.93
2023-03-30T11:39:59.001Z,1.38
2023-03-30T11:42:30.813Z,1.00
2023-03-30T11:44:58.978Z,1.25
2023-03-30T11:47:32.090Z,1.05
2023-03-30T11:50:13.502Z,1.20
2023-03-30T11:53:01.484Z,1.58
2023-03-30T11:55:39.822Z,1.30
2023-03-30T11:58:33.234Z,1.35
2023-03-30T12:01:17.869Z,1.20
2023-03-30T12:03:59.420Z,1.40
2023-03-30T12:06:47.499Z,1.00
2023-03-30T12:09:25.695Z,1.17
2023-03-30T12:11:55.793Z,1.23
2023-03-30T12:14:45.987Z,1.15
2023-03-30T12:17:49.116Z,1.23
2023-03-30T12:20:28.205Z,1.10
2023-03-30T12:23:12.655Z,1.27
2023-03-30T12:26:22.335Z,1.15
2023-03-30T12:29:36.031Z,1.10
2023-03-30T12:32:05.404Z,1.13
2023-03-30T12:34:38.195Z,0.95
2023-03-30T12:37:15.067Z,1.33
2023-03-30T12:40:23.149Z,1.25
2023-03-30T12:43:19.190Z,1.25
2023-03-30T12:46:07.878Z,1.42
2023-03-30T12:49:04.260Z,1.45
2023-03-30T12:51:46.217Z,1.45
2023-03-30T12:54:28.613Z,1.35
2023-03-30T12:57:30.491Z,1.52
2023-03-30T13:00:19.234Z,1.63
2023-03-30T13:03:24.893Z,1.48
2023-03-30T13:06:08.784Z,1.35
2023-03-30T13:08:42.337Z,1.20
2023-03-30T13:11:17.550Z,1.30
2023-03-30T13:14:08.597Z,1.27
2023-03-30T13:17:12.459Z,1.10
2023-03-30T13:20:15.424Z,1.50
2023-03-30T13:23:02.307Z,1.13
2023-03-30T13:25:41.392Z,1.50
2023-03-30T13:28:30.063Z,1.25
2023-03-30T13:31:06.271Z,1.45
2023-03-30T13:33:37.591Z,1.00
2023-03-30T13:36:17.503Z,1.58
2023-03-30T13:38:55.854Z,1.10
2023-03-30T13:41:53.109Z,1.20
2023-03-30T13:44:47.126Z,1.20
2023-03-30T13:50:00.110Z,1.38
2023-03-30T13:52:41.102Z,1.77
2023-03-30T13:55:24.607Z,1.25
2023-03-30T13:57:59.564Z,1.27
2023-03-30T14:00:39.915Z,1.17
2023-03-30T14:04:00.979Z,1.15
2023-03-30T14:06:36.883Z,1.17
2023-03-30T14:09:06.826Z,1.80
2023-03-30T14:11:41.719Z,1.52
2023-03-30T14:14:17.003Z,1.08
2023-03-30T14:16:46.800Z,1.40
2023-03-30T14:19:22.587Z,1.15
2023-03-30T14:21:53.014Z,1.52
2023-03-30T14:24:29.985Z,1.00
2023-03-30T14:27:07.613Z,0.95
2023-03-30T14:29:36.877Z,9.23
2023-03-30T14:32:10.952Z,2.42
2023-03-30T14:37:13.733Z,1.48
2023-03-30T14:39:53.327Z,1.25
2023-03-30T14:42:24.470Z,1.90
2023-03-30T14:45:17.749Z,2.00
2023-03-30T14:47:57.989Z,1.40
2023-03-30T14:50:30.622Z,1.20
2023-03-30T14:53:00.612Z,1.65
2023-03-30T14:55:41.421Z,1.48
2023-03-30T14:58:25.865Z,1.65
2023-03-30T15:01:09.080Z,1.77
2023-03-30T15:03:38.044Z,1.60
2023-03-30T15:06:16.170Z,1.55
2023-03-30T15:08:47.290Z,1.30
2023-03-30T15:11:25.123Z,1.33
2023-03-30T15:16:42.278Z,1.73
2023-03-30T15:19:40.651Z,2.10
2023-03-30T15:22:39.719Z,1.40
2023-03-30T15:25:36.938Z,1.92
2023-03-30T15:28:19.229Z,1.63
2023-03-30T15:30:52.833Z,1.65
2023-03-30T15:33:46.250Z,1.65
2023-03-30T15:36:26.850Z,1.98
2023-03-30T15:38:57.233Z,1.58
2023-03-30T15:41:46.244Z,1.83
2023-03-30T15:44:23.098Z,2.20
2023-03-30T15:46:53.389Z,1.80
2023-03-30T15:49:32.228Z,1.40
2023-03-30T15:52:05.466Z,1.83
2023-03-30T15:55:07.782Z,1.70
2023-03-30T15:57:43.462Z,1.95
2023-03-30T16:02:58.433Z,2.20
2023-03-30T16:05:38.689Z,1.83
2023-03-30T16:08:08.258Z,1.90
2023-03-30T16:11:12.162Z,2.60
2023-03-30T16:13:46.624Z,2.38
2023-03-30T16:16:15.585Z,2.10
2023-03-30T16:18:45.376Z,1.90
2023-03-30T16:21:12.512Z,2.25
2023-03-30T16:23:41.916Z,2.08
2023-03-30T16:26:13.187Z,1.80
2023-03-30T16:28:43.025Z,2.58
2023-03-30T16:31:19.758Z,2.45
2023-03-30T16:33:46.908Z,2.30
2023-03-30T16:36:18.630Z,2.92
2023-03-30T16:38:47.907Z,3.00
2023-03-30T16:41:26.072Z,3.20
2023-03-30T16:43:53.968Z,3.05
2023-03-30T16:46:22.318Z,3.38
2023-03-30T16:48:50.355Z,3.33
2023-03-30T16:51:17.593Z,2.78
2023-03-30T16:53:44.654Z,3.63
2023-03-30T16:56:19.111Z,4.15
2023-03-30T16:58:48.540Z,3.65
2023-03-30T17:01:21.424Z,3.00
2023-03-30T17:03:48.392Z,3.80
2023-03-30T17:06:16.992Z,3.30
2023-03-30T17:08:47.505Z,3.58
2023-03-30T17:11:20.621Z,3.65
2023-03-30T17:13:48.993Z,4.18
2023-03-30T17:16:18.042Z,3.72
2023-03-30T17:18:45.187Z,3.88
2023-03-30T17:21:16.988Z,4.38
2023-03-30T17:23:47.912Z,4.00
2023-03-30T17:26:14.980Z,6.30
2023-03-30T17:28:43.980Z,4.93
2023-03-30T17:31:20.310Z,5.03
2023-03-30T17:33:47.911Z,5.30
2023-03-30T17:36:22.359Z,5.32
2023-03-30T17:38:50.848Z,5.20
2023-03-30T17:41:19.608Z,5.53
2023-03-30T17:43:51.584Z,5.32
2023-03-30T17:46:22.734Z,4.75
2023-03-30T17:48:58.987Z,4.40
2023-03-30T17:51:29.536Z,4.30
2023-03-30T17:53:56.741Z,4.45
2023-03-30T17:56:23.680Z,5.45
2023-03-30T17:58:53.184Z,5.28
2023-03-30T18:01:20.007Z,5.85
2023-03-30T18:03:49.455Z,5.63
2023-03-30T18:06:18.994Z,5.65
2023-03-30T18:08:50.897Z,4.85
2023-03-30T18:11:22.864Z,5.75
2023-03-30T18:13:51.857Z,5.60
2023-03-30T18:16:24.447Z,5.38
2023-03-30T18:18:55.162Z,5.07
2023-03-30T18:21:23.266Z,5.53
2023-03-30T18:23:50.771Z,5.40
2023-03-30T18:26:17.775Z,5.50
2023-03-30T18:28:55.826Z,5.88
2023-03-30T18:31:23.297Z,8.50
2023-03-30T18:33:53.031Z,7.95
2023-03-30T18:36:20.983Z,9.40
2023-03-30T18:38:53.039Z,7.03
2023-03-30T18:41:20.113Z,9.30
2023-03-30T18:43:47.140Z,9.07
2023-03-30T18:46:14.239Z,8.38
2023-03-30T18:48:41.423Z,7.65
2023-03-30T18:51:10.985Z,8.63
2023-03-30T18:53:37.880Z,10.38
2023-03-30T18:56:04.953Z,9.57
2023-03-30T18:58:33.917Z,11.60
2023-03-30T19:01:03.284Z,11.32
2023-03-30T19:03:30.405Z,10.93
2023-03-30T19:05:57.436Z,11.07
2023-03-30T19:08:26.463Z,17.25
2023-03-30T19:10:58.492Z,17.55
2023-03-30T19:13:33.930Z,17.77
2023-03-30T19:16:04.346Z,14.45
2023-03-30T19:18:31.516Z,16.48
2023-03-30T19:20:58.287Z,17.17
2023-03-30T19:23:27.881Z,23.67
2023-03-30T19:25:54.684Z,23.92
2023-03-30T19:28:26.070Z,20.75
2023-03-30T19:30:55.736Z,19.35
2023-03-30T19:33:24.914Z,20.75
2023-03-30T19:35:52.241Z,20.13
2023-03-30T19:38:21.160Z,17.80
2023-03-30T19:40:48.009Z,17.38
2023-03-30T19:43:15.329Z,18.30
2023-03-30T19:45:42.103Z,18.67
2023-03-30T19:48:09.667Z,19.58
2023-03-30T19:50:40.731Z,19.35
2023-03-30T19:53:08.035Z,18.98
2023-03-30T19:55:36.166Z,18.92
2023-03-30T19:58:09.728Z,20.65
2023-03-30T20:00:37.666Z,19.85
2023-03-30T20:03:06.716Z,19.48
2023-03-30T20:05:36.801Z,18.30
2023-03-30T20:08:17.036Z,19.77
2023-03-30T20:10:54.857Z,18.42
2023-03-30T20:13:24.109Z,19.25
2023-03-30T20:15:55.995Z,21.65
2023-03-30T20:18:23.026Z,22.58
2023-03-30T20:20:49.893Z,21.90
2023-03-30T20:23:16.949Z,22.98
2023-03-30T20:25:49.288Z,23.77
2023-03-30T20:28:17.597Z,24.60
2023-03-30T20:30:44.430Z,24.50
2023-03-30T20:33:11.433Z,25.10
2023-03-30T20:35:38.868Z,25.52
2023-03-30T20:38:14.041Z,23.67
2023-03-30T20:40:41.042Z,23.45
2023-03-30T20:43:10.233Z,23.08
2023-03-30T20:45:46.524Z,24.85
2023-03-30T20:48:27.224Z,22.50
2023-03-30T20:50:55.174Z,24.33
2023-03-30T20:53:23.042Z,22.17
2023-03-30T20:55:49.908Z,23.92
2023-03-30T20:58:16.738Z,24.98
2023-03-30T21:00:44.752Z,24.92
2023-03-30T21:03:14.202Z,23.10
2023-03-30T21:05:42.465Z,23.30
2023-03-30T21:08:09.358Z,22.83
2023-03-30T21:10:36.439Z,22.77
2023-03-30T21:13:03.390Z,22.50
2023-03-30T21:15:30.402Z,22.33
2023-03-30T21:17:57.355Z,22.70
2023-03-30T21:20:24.473Z,20.27
2023-03-30T21:22:53.457Z,20.73
2023-03-30T21:25:21.760Z,24.65
2023-03-30T21:27:48.574Z,21.33
2023-03-30T21:30:15.902Z,23.90
2023-03-30T21:32:42.815Z,25.42
2023-03-30T21:35:09.796Z,23.13
2023-03-30T21:37:36.648Z,20.80
2023-03-30T21:40:05.900Z,18.00
2023-03-30T21:42:36.096Z,16.25
2023-03-30T21:45:05.251Z,14.60
2023-03-30T21:47:34.107Z,16.05
2023-03-30T21:50:01.065Z,11.55
2023-03-30T21:52:29.476Z,12.57
2023-03-30T21:54:56.487Z,17.20
2023-03-30T21:57:23.542Z,19.85
2023-03-30T21:59:50.608Z,19.08
2023-03-30T22:02:17.629Z,16.90
2023-03-30T22:04:44.732Z,17.40
2023-03-30T22:07:11.849Z,18.63
2023-03-30T22:09:39.004Z,18.50
2023-03-30T22:12:06.697Z,17.20
2023-03-30T22:14:36.901Z,18.75
2023-03-30T22:17:03.951Z,17.85
2023-03-30T22:19:34.475Z,17.92
2023-03-30T22:22:01.762Z,17.83
2023-03-30T22:24:29.095Z,18.60
2023-03-30T22:26:56.439Z,19.65
2023-03-30T22:29:25.872Z,19.40
2023-03-30T22:31:55.876Z,17.52
2023-03-30T22:34:26.054Z,17.70
2023-03-30T22:36:55.220Z,16.10
2023-03-30T22:39:22.066Z,14.48
2023-03-30T22:41:56.161Z,15.82
2023-03-30T22:44:23.122Z,15.63
2023-03-30T22:46:49.968Z,15.73
2023-03-30T22:49:19.972Z,17.95
2023-03-30T22:51:52.760Z,16.58
2023-03-30T22:54:21.804Z,18.02
2023-03-30T22:56:51.235Z,18.58
2023-03-30T22:59:18.235Z,19.95
2023-03-30T23:01:45.078Z,19.08
2023-03-30T23:04:12.217Z,19.67
2023-03-30T23:06:39.221Z,20.73
2023-03-30T23:09:06.813Z,19.85
2023-03-30T23:11:34.260Z,21.70
2023-03-30T23:14:07.105Z,20.05
2023-03-30T23:16:36.144Z,17.38
2023-03-30T23:19:03.608Z,16.42
2023-03-30T23:21:36.788Z,19.75
2023-03-30T23:24:06.595Z,15.38
2023-03-30T23:26:34.158Z,17.65
2023-03-30T23:29:00.890Z,19.85
2023-03-30T23:31:27.905Z,20.92
2023-03-30T23:33:56.339Z,19.73
2023-03-30T23:36:23.937Z,17.48
2023-03-30T23:38:51.698Z,18.50
2023-03-30T23:41:19.830Z,13.68
2023-03-30T23:43:47.090Z,12.80
2023-03-30T23:46:15.575Z,11.75
2023-03-30T23:48:42.585Z,11.15
2023-03-30T23:51:10.022Z,11.60
2023-03-30T23:53:40.359Z,11.70
2023-03-30T23:56:17.365Z,11.07
2023-03-30T23:58:45.007Z,12.20
